Terminal Aerodrome Forecast
Issued by NWS

Current Version | Previous Version | Text Only | Print | Product List | Glossary Off
Versions: 1 2 3 4 5 6 7 8 9 10 11 12 13 14 15 16 17 18 19 20 21 22

638
FTUS41 KPBZ 201135
TAFHLG
TAF
KHLG 201135Z 2012/2112 00000KT 1SM BR SKC
      TEMPO 2012/2013 1/4SM FG
     FM201300 00000KT 4SM BR SCT080
      TEMPO 2013/2014 1SM BR
     FM201400 00000KT P6SM SCT080
     FM201800 00000KT P6SM VCSH BKN045=

USA.gov is the U.S. government's official web portal to all federal, state and local government web resources and services.